Time;durP1;ratioP1;P1;durP2;ratioP2;P2;SDS_P1;SDS_P2;PMS_P1;PMS_P2;Temp;Humidity;BMP_temperature;BMP_pressure;BME280_temperature;BME280_humidity;BME280_pressure;Samples;Min_cycle;Max_cycle;Signal;HPM_P1;HPM_P2
2021/08/14 06:09:40;;;;;;;36.38;10.15;;;17.90;99.90;;;;;;2559113;54;3629832;-86
2021/08/14 06:12:10;;;;;;;45.00;10.88;;;17.90;99.90;;;;;;2624503;46;20072;-86
2021/08/14 06:14:37;;;;;;;37.08;10.85;;;17.90;99.90;;;;;;2622284;46;20133;-87
2021/08/14 06:17:04;;;;;;;45.70;10.73;;;18.00;99.90;;;;;;2621793;47;20031;-87
2021/08/14 06:19:30;;;;;;;35.42;9.13;;;18.00;99.90;;;;;;2620110;46;21272;-86
2021/08/14 06:21:56;;;;;;;45.30;11.75;;;18.00;99.90;;;;;;2623258;46;20106;-86
2021/08/14 06:24:21;;;;;;;43.13;10.30;;;18.10;99.90;;;;;;2623642;38;20439;-86
2021/08/14 06:26:47;;;;;;;36.95;10.45;;;18.10;99.90;;;;;;2622845;54;20073;-88
2021/08/14 06:29:13;;;;;;;34.03;9.13;;;18.10;99.90;;;;;;2621042;54;20042;-85
2021/08/14 06:31:42;;;;;;;32.67;8.95;;;18.10;99.90;;;;;;2619004;46;20038;-83
2021/08/14 06:34:08;;;;;;;38.38;9.15;;;18.20;99.90;;;;;;2618199;46;20030;-83
2021/08/14 06:36:34;;;;;;;31.80;8.38;;;18.30;99.90;;;;;;2618359;46;20030;-85
2021/08/14 06:39:03;;;;;;;38.40;8.77;;;18.60;99.90;;;;;;2619047;54;20042;-81
2021/08/14 06:41:28;;;;;;;27.02;8.10;;;18.70;99.90;;;;;;2618794;46;20042;-85
2021/08/14 06:43:54;;;;;;;28.85;7.65;;;19.00;99.90;;;;;;2618166;46;20084;-82
2021/08/14 06:46:20;;;;;;;27.40;7.03;;;19.00;99.90;;;;;;2618848;46;20042;-84
2021/08/14 06:48:48;;;;;;;29.50;7.35;;;19.40;99.90;;;;;;2617561;47;20023;-84
2021/08/14 06:51:17;;;;;;;34.13;8.75;;;19.20;99.90;;;;;;2618592;47;20030;-84
2021/08/14 06:53:43;;;;;;;28.60;6.75;;;19.00;99.90;;;;;;2618359;46;20780;-84
2021/08/14 06:56:09;;;;;;;31.88;7.25;;;19.00;99.90;;;;;;2620351;31;20457;-84
2021/08/14 06:58:34;;;;;;;32.83;8.30;;;18.90;99.90;;;;;;2619038;46;20042;-82
2021/08/14 07:01:02;;;;;;;34.95;7.55;;;19.00;99.90;;;;;;2619591;47;20034;-84
2021/08/14 07:03:28;;;;;;;29.00;6.90;;;19.00;99.90;;;;;;2619745;54;20049;-83
2021/08/14 07:05:53;;;;;;;32.90;6.53;;;19.20;99.90;;;;;;2617556;54;20027;-84
2021/08/14 07:08:19;;;;;;;27.15;6.70;;;19.30;99.90;;;;;;2618705;47;20029;-83
2021/08/14 07:10:45;;;;;;;24.90;5.85;;;19.30;99.90;;;;;;2618000;47;20030;-84
2021/08/14 07:13:13;;;;;;;29.98;7.38;;;19.60;99.90;;;;;;2617987;46;20046;-83
2021/08/14 07:15:39;;;;;;;26.80;7.07;;;19.60;99.90;;;;;;2618620;54;20042;-85
2021/08/14 07:18:05;;;;;;;20.20;5.22;;;19.60;99.90;;;;;;2619525;46;20034;-85
2021/08/14 07:20:33;;;;;;;26.17;5.63;;;19.20;99.90;;;;;;2615495;46;20118;-84
2021/08/14 07:22:59;;;;;;;19.88;5.07;;;19.40;99.90;;;;;;2614199;54;20042;-84
2021/08/14 07:25:25;;;;;;;27.27;6.88;;;19.30;99.90;;;;;;2615755;54;20630;-84
2021/08/14 07:27:51;;;;;;;22.88;6.53;;;19.20;99.90;;;;;;2614808;54;20127;-86
2021/08/14 07:30:18;;;;;;;26.23;6.90;;;19.30;99.90;;;;;;2615379;54;20042;-84
2021/08/14 07:32:43;;;;;;;24.50;6.53;;;19.50;99.90;;;;;;2614917;39;20463;-84
2021/08/14 07:35:10;;;;;;;27.88;6.60;;;19.60;99.90;;;;;;2614210;47;20134;-83
2021/08/14 07:37:43;;;;;;;20.70;6.18;;;19.50;99.90;;;;;;2614718;46;20043;-83
2021/08/14 07:40:09;;;;;;;18.77;4.68;;;19.40;99.90;;;;;;2614307;47;20533;-84
2021/08/14 07:42:35;;;;;;;15.70;4.55;;;19.50;99.90;;;;;;2613673;47;20038;-83
2021/08/14 07:45:01;;;;;;;17.83;5.35;;;19.70;99.90;;;;;;2613840;47;20057;-83
2021/08/14 07:47:26;;;;;;;21.75;4.88;;;19.60;99.90;;;;;;2613244;47;20034;-83
2021/08/14 07:49:52;;;;;;;16.20;5.32;;;19.80;99.90;;;;;;2613494;47;20049;-84
2021/08/14 07:52:17;;;;;;;18.15;5.38;;;19.90;99.90;;;;;;2616067;46;20038;-85
2021/08/14 07:54:43;;;;;;;15.85;4.45;;;20.00;99.90;;;;;;2615845;47;20034;-86
2021/08/14 07:57:09;;;;;;;10.73;3.90;;;20.00;99.90;;;;;;2615673;54;20050;-84
2021/08/14 07:59:35;;;;;;;14.25;4.10;;;19.70;99.90;;;;;;2614740;54;20038;-86
2021/08/14 08:02:00;;;;;;;14.43;4.05;;;19.90;99.90;;;;;;2615426;47;20060;-85
2021/08/14 08:04:26;;;;;;;19.00;4.68;;;20.00;99.90;;;;;;2615632;47;20061;-86
2021/08/14 08:06:52;;;;;;;13.18;4.72;;;20.00;99.90;;;;;;2614695;47;20046;-85
2021/08/14 08:09:17;;;;;;;18.23;4.65;;;20.00;99.90;;;;;;2615480;47;20046;-85
2021/08/14 08:11:43;;;;;;;16.25;4.88;;;19.80;99.90;;;;;;2616216;47;20110;-86
2021/08/14 08:14:11;;;;;;;16.10;4.85;;;19.80;99.90;;;;;;2615900;54;20643;-85
2021/08/14 08:16:36;;;;;;;23.20;6.00;;;19.90;99.90;;;;;;2614506;47;20057;-83
2021/08/14 08:19:02;;;;;;;22.80;5.78;;;19.90;99.90;;;;;;2616949;54;20057;-86
2021/08/14 08:21:31;;;;;;;15.60;5.22;;;19.40;99.90;;;;;;2616118;47;20042;-84
2021/08/14 08:24:00;;;;;;;22.35;5.97;;;19.80;99.90;;;;;;2615249;47;20566;-84
2021/08/14 08:26:25;;;;;;;20.20;6.00;;;20.00;99.90;;;;;;2614499;47;20450;-87
2021/08/14 08:28:52;;;;;;;22.38;6.10;;;20.30;99.90;;;;;;2614478;46;20073;-84
2021/08/14 08:31:17;;;;;;;21.95;5.60;;;20.30;99.90;;;;;;2614235;46;20034;-82
2021/08/14 08:33:43;;;;;;;22.20;4.88;;;20.10;99.90;;;;;;2614317;47;20038;-83
2021/08/14 08:36:09;;;;;;;21.42;5.57;;;20.20;99.90;;;;;;2614153;46;20054;-83
2021/08/14 08:38:34;;;;;;;20.13;4.75;;;20.30;99.90;;;;;;2613834;46;20069;-83
2021/08/14 08:41:00;;;;;;;17.63;5.00;;;20.00;99.90;;;;;;2613987;46;20426;-82
2021/08/14 08:43:26;;;;;;;21.67;6.45;;;19.90;99.90;;;;;;2613755;39;20124;-84
2021/08/14 08:45:52;;;;;;;13.10;4.65;;;19.90;99.90;;;;;;2613822;46;20065;-84
2021/08/14 08:48:19;;;;;;;19.17;5.65;;;20.00;99.90;;;;;;2614426;47;20039;-83
2021/08/14 08:50:47;;;;;;;23.85;5.18;;;19.90;99.90;;;;;;2613872;46;20050;-82
2021/08/14 08:53:13;;;;;;;14.02;4.85;;;19.90;99.90;;;;;;2614010;47;20519;-84
2021/08/14 08:55:39;;;;;;;17.35;4.72;;;19.90;99.90;;;;;;2613932;46;20042;-83
2021/08/14 08:58:05;;;;;;;23.42;4.68;;;20.40;99.90;;;;;;2614177;46;20133;-84
2021/08/14 09:00:31;;;;;;;16.98;4.13;;;20.20;99.90;;;;;;2614592;46;20042;-83
2021/08/14 09:03:07;;;;;;;12.25;4.38;;;20.30;99.90;;;;;;2614152;47;20022;-84
2021/08/14 09:05:33;;;;;;;15.55;4.15;;;20.60;99.90;;;;;;2614203;47;20543;-85
2021/08/14 09:08:09;;;;;;;13.02;3.53;;;20.60;99.90;;;;;;2617683;54;20153;-84
2021/08/14 09:10:35;;;;;;;13.68;4.75;;;20.60;99.90;;;;;;2614299;47;20545;-84
2021/08/14 09:13:16;;;;;;;15.57;5.05;;;21.00;99.90;;;;;;2613683;47;20022;-85
2021/08/14 09:15:45;;;;;;;12.93;4.13;;;20.90;99.90;;;;;;2615614;47;20030;-84
2021/08/14 09:18:13;;;;;;;12.68;3.80;;;20.70;99.90;;;;;;2614273;47;20037;-84
2021/08/14 09:20:50;;;;;;;13.00;4.07;;;20.90;99.90;;;;;;2613510;46;20034;-84
2021/08/14 09:23:16;;;;;;;11.55;3.83;;;20.90;99.90;;;;;;2613402;47;20027;-84
2021/08/14 09:25:57;;;;;;;13.27;4.25;;;20.70;99.90;;;;;;2614304;47;20023;-84
2021/08/14 09:28:39;;;;;;;12.35;4.53;;;20.60;99.90;;;;;;2613425;47;20077;-86
2021/08/14 09:31:07;;;;;;;16.17;4.30;;;20.80;99.90;;;;;;2614251;39;20466;-83
2021/08/14 09:33:35;;;;;;;15.80;4.18;;;21.60;99.90;;;;;;2613733;47;20030;-83
2021/08/14 09:36:09;;;;;;;13.60;3.58;;;21.80;99.90;;;;;;2612551;47;20126;-84
2021/08/14 09:38:42;;;;;;;14.25;4.03;;;22.30;99.90;;;;;;2612520;39;20487;-86
2021/08/14 09:41:18;;;;;;;18.70;4.20;;;23.30;99.90;;;;;;2612278;54;20025;-82
2021/08/14 09:43:46;;;;;;;16.38;4.50;;;22.90;99.90;;;;;;2612421;54;20042;-83
2021/08/14 09:46:12;;;;;;;15.40;3.80;;;22.50;99.90;;;;;;2613398;47;20085;-84
2021/08/14 09:48:38;;;;;;;14.45;4.10;;;22.70;99.90;;;;;;2614275;47;20141;-86
2021/08/14 09:51:04;;;;;;;12.02;4.20;;;23.10;99.90;;;;;;2613930;47;20034;-83
2021/08/14 09:53:30;;;;;;;13.60;3.47;;;22.90;99.90;;;;;;2613335;47;20030;-83
2021/08/14 09:56:11;;;;;;;11.80;4.32;;;23.80;99.90;;;;;;2613577;47;20031;-84
2021/08/14 09:58:38;;;;;;;14.75;4.28;;;24.00;99.90;;;;;;2612219;47;20037;-84
2021/08/14 10:01:06;;;;;;;13.13;3.45;;;24.30;99.90;;;;;;2614002;39;20403;-85
2021/08/14 10:03:36;;;;;;;15.38;3.85;;;24.30;99.90;;;;;;2613763;46;20030;-84
2021/08/14 10:06:03;;;;;;;13.05;4.47;;;24.30;99.90;;;;;;2614016;47;20023;-84
2021/08/14 10:08:29;;;;;;;10.57;3.05;;;24.70;99.90;;;;;;2613798;39;20471;-86
2021/08/14 10:10:56;;;;;;;11.43;2.70;;;25.10;99.90;;;;;;2613120;39;20182;-87
2021/08/14 10:13:22;;;;;;;9.25;3.03;;;25.20;99.90;;;;;;2614149;54;20023;-83
2021/08/14 10:15:51;;;;;;;13.70;3.95;;;24.80;99.90;;;;;;2613325;47;20039;-84
2021/08/14 10:18:18;;;;;;;13.23;3.53;;;24.60;99.90;;;;;;2613342;47;20057;-83
2021/08/14 10:20:45;;;;;;;9.63;4.55;;;25.10;99.90;;;;;;2613365;47;20041;-87
2021/08/14 10:23:17;;;;;;;11.73;4.90;;;25.70;99.90;;;;;;2614047;47;20118;-85
2021/08/14 10:25:44;;;;;;;14.70;4.00;;;24.40;99.90;;;;;;2612744;47;20042;-83
2021/08/14 10:28:10;;;;;;;6.78;2.67;;;24.40;99.90;;;;;;2613444;54;20037;-84
2021/08/14 10:30:46;;;;;;;10.38;3.25;;;24.90;99.90;;;;;;2613601;47;20042;-86
2021/08/14 10:33:27;;;;;;;9.95;3.13;;;25.10;99.90;;;;;;2614085;39;20529;-86
2021/08/14 10:35:54;;;;;;;7.03;2.28;;;24.30;99.90;;;;;;2615070;47;20031;-83
2021/08/14 10:38:39;;;;;;;8.25;2.83;;;24.50;99.90;;;;;;2614430;54;20542;-84
2021/08/14 10:41:06;;;;;;;8.18;3.08;;;24.60;99.90;;;;;;2613657;47;20050;-84
2021/08/14 10:43:54;;;;;;;6.88;2.47;;;24.70;99.90;;;;;;2613800;39;20470;-86
2021/08/14 10:46:38;;;;;;;15.35;3.03;;;24.80;99.90;;;;;;2614050;47;20072;-83
2021/08/14 10:49:06;;;;;;;12.02;3.45;;;24.90;99.90;;;;;;2614246;47;20042;-84
2021/08/14 10:51:47;;;;;;;8.32;2.92;;;24.70;99.90;;;;;;2614323;47;20041;-84
2021/08/14 10:54:29;;;;;;;6.43;2.58;;;24.80;99.90;;;;;;2617653;47;20042;-88
2021/08/14 10:56:58;;;;;;;11.77;3.10;;;24.90;99.90;;;;;;2615943;46;20476;-87
2021/08/14 10:59:39;;;;;;;8.70;2.95;;;24.90;99.90;;;;;;2623368;46;20049;-87
2021/08/14 11:02:11;;;;;;;6.22;2.30;;;24.40;99.90;;;;;;2615819;54;20041;-86
2021/08/14 11:04:37;;;;;;;7.32;2.30;;;25.10;99.90;;;;;;2614882;46;20041;-86
2021/08/14 11:07:18;;;;;;;8.65;2.67;;;25.20;99.90;;;;;;2615572;46;20042;-83
2021/08/14 11:09:46;;;;;;;9.38;2.10;;;24.60;99.90;;;;;;2621499;46;20042;-86
2021/08/14 11:12:29;;;;;;;6.90;2.95;;;24.40;99.90;;;;;;2616152;54;20026;-86
2021/08/14 11:15:18;;;;;;;8.57;2.50;;;24.80;99.90;;;;;;2614997;39;20228;-85
2021/08/14 11:17:49;;;;;;;6.93;2.40;;;25.20;99.90;;;;;;2616634;46;20043;-84
2021/08/14 11:20:24;;;;;;;6.85;2.22;;;25.60;99.90;;;;;;2615078;54;20913;-86
2021/08/14 11:22:54;;;;;;;7.78;2.85;;;25.20;99.90;;;;;;2614612;46;20065;-87
2021/08/14 11:25:29;;;;;;;5.57;2.80;;;24.90;99.90;;;;;;2614722;54;20107;-86
2021/08/14 11:28:01;;;;;;;7.53;2.50;;;25.20;99.90;;;;;;2614887;46;20527;-88
2021/08/14 11:30:36;;;;;;;8.63;3.22;;;25.40;99.90;;;;;;2616436;46;20146;-88
2021/08/14 11:33:07;;;;;;;10.77;3.22;;;24.20;99.90;;;;;;2615955;46;20042;-84
2021/08/14 11:35:35;;;;;;;11.15;2.83;;;24.90;99.90;;;;;;2617322;46;20038;-87
2021/08/14 11:38:04;;;;;;;10.18;2.42;;;24.80;99.90;;;;;;2635043;46;20090;-86
2021/08/14 11:40:34;;;;;;;9.75;2.85;;;25.30;99.90;;;;;;2634309;39;20084;-88
2021/08/14 11:43:06;;;;;;;5.50;2.50;;;24.80;99.90;;;;;;2630788;47;20040;-85
2021/08/14 11:45:33;;;;;;;8.40;3.28;;;25.30;99.90;;;;;;2630240;46;20026;-88
2021/08/14 11:48:02;;;;;;;6.25;2.20;;;24.90;99.90;;;;;;2635203;46;20038;-90
2021/08/14 11:50:38;;;;;;;10.43;3.20;;;25.40;99.90;;;;;;2631572;46;20030;-89
2021/08/14 11:53:06;;;;;;;5.55;2.90;;;25.50;99.90;;;;;;2631554;54;20037;-87
2021/08/14 11:55:32;;;;;;;6.85;2.35;;;25.30;99.90;;;;;;2631204;54;20018;-89
2021/08/14 11:57:58;;;;;;;6.53;2.15;;;25.10;99.90;;;;;;2627522;46;20077;-72
2021/08/14 12:00:37;;;;;;;8.15;3.17;;;24.90;99.90;;;;;;2611241;47;20065;-73
2021/08/14 12:03:06;;;;;;;7.65;2.78;;;25.00;99.90;;;;;;2611988;39;20458;-73
2021/08/14 12:05:32;;;;;;;7.22;2.45;;;25.10;99.90;;;;;;2611650;46;20042;-74
2021/08/14 12:07:58;;;;;;;6.45;2.15;;;24.80;99.90;;;;;;2611324;54;20037;-73
2021/08/14 12:10:24;;;;;;;10.85;2.67;;;24.40;99.90;;;;;;2611361;46;20053;-73
2021/08/14 12:13:01;;;;;;;7.38;2.78;;;24.60;99.90;;;;;;2609848;54;20030;-73
2021/08/14 12:15:39;;;;;;;13.15;5.05;;;24.80;99.90;;;;;;2611408;54;20126;-75
2021/08/14 12:18:09;;;;;;;10.05;4.82;;;24.50;99.90;;;;;;2611645;46;20138;-74
2021/08/14 12:20:44;;;;;;;6.40;3.30;;;24.70;99.90;;;;;;2611157;39;20494;-75
2021/08/14 12:23:25;;;;;;;5.68;2.85;;;24.90;99.90;;;;;;2611714;46;20154;-74
2021/08/14 12:25:53;;;;;;;6.45;2.53;;;24.30;99.90;;;;;;2610322;46;20150;-74
2021/08/14 12:28:40;;;;;;;8.45;3.25;;;24.70;99.90;;;;;;2610434;46;20093;-74
2021/08/14 12:31:17;;;;;;;7.30;2.60;;;25.10;99.90;;;;;;2611167;46;20042;-73
2021/08/14 12:33:52;;;;;;;8.70;4.22;;;25.50;99.90;;;;;;2610272;47;20030;-74
2021/08/14 12:37:04;;;;;;;12.23;4.60;;;25.30;99.90;;;;;;2611014;47;20050;-75
2021/08/14 12:40:06;;;;;;;8.35;3.97;;;25.60;99.90;;;;;;2609987;47;20042;-73
2021/08/14 12:42:34;;;;;;;9.50;3.65;;;25.60;99.90;;;;;;2608255;54;20062;-74
2021/08/14 12:45:14;;;;;;;12.77;4.40;;;25.70;99.90;;;;;;2611348;46;20141;-76
2021/08/14 12:47:39;;;;;;;8.38;3.60;;;25.30;99.90;;;;;;2611060;46;20496;-73
2021/08/14 12:50:13;;;;;;;9.68;3.08;;;24.80;99.90;;;;;;2611388;47;20047;-74
2021/08/14 12:52:40;;;;;;;6.85;2.63;;;25.10;99.90;;;;;;2611031;46;20048;-76
2021/08/14 12:55:07;;;;;;;8.35;3.03;;;25.50;99.90;;;;;;2611036;46;20072;-77
2021/08/14 12:57:32;;;;;;;7.65;2.60;;;25.30;99.90;;;;;;2609738;47;20049;-75
2021/08/14 12:59:58;;;;;;;9.63;3.33;;;25.40;99.90;;;;;;2611493;54;20153;-73
2021/08/14 13:02:23;;;;;;;9.02;3.10;;;25.80;99.90;;;;;;2612028;54;20031;-74
2021/08/14 13:04:49;;;;;;;8.82;3.40;;;25.70;99.90;;;;;;2610709;54;20554;-73
2021/08/14 13:07:15;;;;;;;7.63;3.03;;;25.60;99.90;;;;;;2611512;47;20054;-74
2021/08/14 13:09:40;;;;;;;9.82;3.05;;;25.60;99.90;;;;;;2610604;47;20605;-73
2021/08/14 13:12:06;;;;;;;11.88;2.65;;;25.40;99.90;;;;;;2610295;54;20023;-74
2021/08/14 13:14:32;;;;;;;7.28;3.03;;;25.60;99.90;;;;;;2610332;54;20030;-75
2021/08/14 13:16:58;;;;;;;5.35;2.20;;;25.70;99.90;;;;;;2610884;39;20403;-72
2021/08/14 13:19:26;;;;;;;7.10;2.90;;;26.00;99.90;;;;;;2610853;54;20574;-75
2021/08/14 13:21:53;;;;;;;8.88;3.20;;;25.70;99.90;;;;;;2610512;46;20523;-74
2021/08/14 13:24:19;;;;;;;8.95;2.92;;;25.50;99.90;;;;;;2611045;47;20034;-73
2021/08/14 13:26:47;;;;;;;7.85;2.67;;;25.00;99.90;;;;;;2610029;39;20357;-73
2021/08/14 13:29:13;;;;;;;8.90;2.70;;;25.10;99.90;;;;;;2610015;46;20035;-73
2021/08/14 13:31:43;;;;;;;7.32;2.33;;;25.50;99.90;;;;;;2610675;46;20046;-74
2021/08/14 13:34:11;;;;;;;7.70;2.28;;;25.70;99.90;;;;;;2610932;39;20439;-74
2021/08/14 13:36:37;;;;;;;10.25;2.35;;;25.30;99.90;;;;;;2611059;54;20057;-73
2021/08/14 13:39:04;;;;;;;8.63;2.97;;;25.10;99.90;;;;;;2611365;39;20098;-73
2021/08/14 13:41:29;;;;;;;6.97;2.30;;;25.30;99.90;;;;;;2610400;54;20036;-73
2021/08/14 13:43:55;;;;;;;8.32;2.72;;;25.20;99.90;;;;;;2609643;39;20545;-74
2021/08/14 13:46:21;;;;;;;7.70;2.83;;;25.40;99.90;;;;;;2610746;54;20018;-74
2021/08/14 13:48:47;;;;;;;6.90;2.60;;;25.10;99.90;;;;;;2610354;54;20049;-73
2021/08/14 13:51:14;;;;;;;7.68;2.53;;;24.90;99.90;;;;;;2611979;39;20418;-73
2021/08/14 13:53:39;;;;;;;7.65;2.78;;;24.30;99.90;;;;;;2610301;54;20070;-73
2021/08/14 13:56:06;;;;;;;12.23;2.83;;;24.60;99.90;;;;;;2611532;47;20042;-72
2021/08/14 13:58:32;;;;;;;12.32;3.50;;;24.70;99.90;;;;;;2611259;47;20171;-72
2021/08/14 14:00:58;;;;;;;9.77;2.97;;;24.30;99.90;;;;;;2610854;54;20048;-74
2021/08/14 14:03:25;;;;;;;8.35;3.10;;;24.00;99.90;;;;;;2611846;39;20462;-73
2021/08/14 14:05:51;;;;;;;16.02;3.00;;;24.00;99.90;;;;;;2611061;47;20133;-73
2021/08/14 14:08:17;;;;;;;16.80;3.30;;;24.10;99.90;;;;;;2611866;39;20283;-74
2021/08/14 14:10:42;;;;;;;8.13;3.15;;;23.90;99.90;;;;;;2611031;51;20037;-77
2021/08/14 14:13:08;;;;;;;8.52;2.72;;;23.70;99.90;;;;;;2610992;54;20061;-76
2021/08/14 14:15:34;;;;;;;10.45;2.58;;;23.90;99.90;;;;;;2611972;54;20137;-78
2021/08/14 14:17:59;;;;;;;9.20;3.13;;;23.80;99.90;;;;;;2611623;54;20029;-76
2021/08/14 14:20:27;;;;;;;11.50;3.22;;;23.80;99.90;;;;;;2611907;39;20857;-76
2021/08/14 14:22:54;;;;;;;12.88;3.47;;;23.80;99.90;;;;;;2611540;47;20034;-77
2021/08/14 14:25:19;;;;;;;9.55;3.53;;;24.00;99.90;;;;;;2611287;39;20487;-78
2021/08/14 14:27:46;;;;;;;9.95;2.83;;;24.00;99.90;;;;;;2610987;47;20034;-82
2021/08/14 14:30:13;;;;;;;13.32;3.35;;;23.90;99.90;;;;;;2612834;47;20189;-82
2021/08/14 14:32:39;;;;;;;9.45;3.47;;;24.00;99.90;;;;;;2613049;46;20038;-80
2021/08/14 14:35:05;;;;;;;9.85;2.97;;;23.90;99.90;;;;;;2612866;46;20608;-82
2021/08/14 14:37:31;;;;;;;10.10;3.67;;;23.90;99.90;;;;;;2612974;46;20046;-80
2021/08/14 14:39:57;;;;;;;10.60;2.85;;;23.80;99.90;;;;;;2612366;47;20138;-81
2021/08/14 14:42:22;;;;;;;11.32;3.85;;;24.00;99.90;;;;;;2612874;47;20042;-81
2021/08/14 14:44:48;;;;;;;13.00;3.67;;;23.90;99.90;;;;;;2613166;46;20057;-80
2021/08/14 14:47:13;;;;;;;9.52;2.75;;;24.20;99.90;;;;;;2613567;54;20196;-82
2021/08/14 14:49:39;;;;;;;8.23;2.80;;;24.30;99.90;;;;;;2613604;39;20427;-80
2021/08/14 14:52:06;;;;;;;10.48;2.60;;;23.90;99.90;;;;;;2613237;46;20081;-79
2021/08/14 14:54:32;;;;;;;8.73;2.58;;;24.20;99.90;;;;;;2613835;39;20454;-79
2021/08/14 14:56:59;;;;;;;12.85;3.17;;;24.20;99.90;;;;;;2612160;46;20593;-79
2021/08/14 14:59:25;;;;;;;9.55;2.80;;;23.70;99.90;;;;;;2612575;54;20030;-78
2021/08/14 15:01:52;;;;;;;11.20;3.30;;;24.00;99.90;;;;;;2612500;46;20030;-79
2021/08/14 15:04:18;;;;;;;10.05;2.67;;;23.80;99.90;;;;;;2612846;46;20038;-78
2021/08/14 15:06:43;;;;;;;9.73;3.72;;;23.80;99.90;;;;;;2612636;54;20061;-80
2021/08/14 15:09:09;;;;;;;7.13;3.13;;;23.60;99.90;;;;;;2612908;46;20589;-81
2021/08/14 15:11:35;;;;;;;10.80;3.42;;;24.00;99.90;;;;;;2612270;46;20038;-81
2021/08/14 15:14:01;;;;;;;9.73;3.08;;;24.10;99.90;;;;;;2613201;39;20457;-78
2021/08/14 15:16:27;;;;;;;7.80;3.10;;;24.00;99.90;;;;;;2612551;54;20038;-83
2021/08/14 15:18:52;;;;;;;9.48;3.58;;;24.10;99.90;;;;;;2611742;46;20058;-80
2021/08/14 15:21:20;;;;;;;8.98;3.60;;;23.80;99.90;;;;;;2612417;46;20162;-81
2021/08/14 15:23:46;;;;;;;9.57;3.40;;;23.90;99.90;;;;;;2612881;47;20057;-80
2021/08/14 15:26:12;;;;;;;9.68;3.63;;;23.60;99.90;;;;;;2613672;46;20031;-80
2021/08/14 15:28:38;;;;;;;10.77;3.92;;;23.50;99.90;;;;;;2614213;47;20038;-80
2021/08/14 15:31:03;;;;;;;9.57;3.03;;;23.20;99.90;;;;;;2614911;54;20038;-80
2021/08/14 15:33:29;;;;;;;13.13;3.90;;;22.70;99.90;;;;;;2613423;47;20617;-81
2021/08/14 15:35:56;;;;;;;12.18;3.42;;;22.90;99.90;;;;;;2613819;47;20038;-81
2021/08/14 15:38:22;;;;;;;12.40;3.97;;;22.70;99.90;;;;;;2612926;47;20034;-82
2021/08/14 15:40:47;;;;;;;11.23;4.20;;;22.60;99.90;;;;;;2612406;46;20030;-80
2021/08/14 15:43:13;;;;;;;11.52;3.80;;;22.60;99.90;;;;;;2611869;47;20045;-76
2021/08/14 15:45:39;;;;;;;13.27;3.78;;;22.40;99.90;;;;;;2611713;54;20030;-79
2021/08/14 15:48:05;;;;;;;8.27;3.15;;;22.40;99.90;;;;;;2612352;47;20102;-79
2021/08/14 15:50:34;;;;;;;9.50;3.72;;;22.40;99.90;;;;;;2612553;47;20042;-79
2021/08/14 15:53:01;;;;;;;9.77;3.55;;;22.60;99.90;;;;;;2608915;39;20394;-77
2021/08/14 15:55:27;;;;;;;11.55;3.05;;;22.60;99.90;;;;;;2608533;46;20046;-78
2021/08/14 15:57:53;;;;;;;9.88;3.35;;;22.30;99.90;;;;;;2607479;46;20049;-78
2021/08/14 16:00:19;;;;;;;8.85;3.65;;;22.20;99.90;;;;;;2608791;47;20047;-78
2021/08/14 16:02:45;;;;;;;10.52;2.92;;;22.00;99.90;;;;;;2607935;46;20038;-77
2021/08/14 16:05:13;;;;;;;8.68;3.22;;;22.10;99.90;;;;;;2610066;46;20590;-78
2021/08/14 16:07:39;;;;;;;8.25;2.92;;;22.20;99.90;;;;;;2611627;54;20034;-78
2021/08/14 16:10:07;;;;;;;10.57;3.15;;;22.30;99.90;;;;;;2611643;47;20570;-76
2021/08/14 16:12:33;;;;;;;11.65;3.60;;;22.40;99.90;;;;;;2611559;47;20053;-80
2021/08/14 16:15:00;;;;;;;11.43;3.30;;;22.00;99.90;;;;;;2611812;54;20034;-76
2021/08/14 16:17:26;;;;;;;13.30;3.72;;;22.30;99.90;;;;;;2612012;46;20444;-77
2021/08/14 16:19:52;;;;;;;9.50;2.95;;;22.10;99.90;;;;;;2610110;46;20042;-77
2021/08/14 16:22:19;;;;;;;11.75;2.90;;;22.30;99.90;;;;;;2611175;39;20543;-78
2021/08/14 16:24:45;;;;;;;8.73;3.05;;;22.40;99.90;;;;;;2611578;47;20042;-78
2021/08/14 16:27:11;;;;;;;12.45;3.85;;;22.10;99.90;;;;;;2611603;47;20038;-78
2021/08/14 16:29:36;;;;;;;8.68;2.78;;;22.30;99.90;;;;;;2611329;46;20059;-78
2021/08/14 16:32:03;;;;;;;9.73;2.90;;;22.60;99.90;;;;;;2612801;31;20612;-78
2021/08/14 16:34:29;;;;;;;9.68;2.65;;;22.60;99.90;;;;;;2611728;46;20046;-78
2021/08/14 16:36:54;;;;;;;10.23;2.75;;;22.20;99.90;;;;;;2611084;46;20038;-78
2021/08/14 16:39:20;;;;;;;14.20;4.15;;;22.70;99.90;;;;;;2612630;39;20399;-79
2021/08/14 16:41:45;;;;;;;9.57;3.15;;;22.70;99.90;;;;;;2611220;46;20046;-78
2021/08/14 16:44:12;;;;;;;11.15;3.42;;;22.60;99.90;;;;;;2612440;54;20555;-77
2021/08/14 16:46:37;;;;;;;10.30;3.75;;;22.50;99.90;;;;;;2611566;47;20030;-78
2021/08/14 16:49:03;;;;;;;9.00;2.88;;;22.30;99.90;;;;;;2611031;46;20038;-78
2021/08/14 16:51:29;;;;;;;12.15;4.55;;;22.30;99.90;;;;;;2609926;46;20570;-78
2021/08/14 16:53:54;;;;;;;10.70;3.15;;;22.10;99.90;;;;;;2610106;39;20485;-77
2021/08/14 16:56:20;;;;;;;11.75;3.10;;;22.10;99.90;;;;;;2609744;46;20038;-80
2021/08/14 16:58:45;;;;;;;9.77;3.20;;;22.00;99.90;;;;;;2610794;47;20114;-77
2021/08/14 17:01:11;;;;;;;11.63;3.53;;;21.80;99.90;;;;;;2610693;39;20440;-77
2021/08/14 17:03:37;;;;;;;10.60;2.97;;;21.70;99.90;;;;;;2610473;47;20038;-78
2021/08/14 17:06:03;;;;;;;10.95;3.25;;;21.80;99.90;;;;;;2610574;47;20137;-77
2021/08/14 17:08:29;;;;;;;11.23;2.95;;;21.60;99.90;;;;;;2610145;46;20038;-77
2021/08/14 17:10:54;;;;;;;7.53;2.63;;;21.90;99.90;;;;;;2610628;47;20129;-79
2021/08/14 17:13:20;;;;;;;12.30;2.90;;;21.80;99.90;;;;;;2610231;47;20045;-79
2021/08/14 17:15:46;;;;;;;9.52;3.13;;;22.00;99.90;;;;;;2610129;46;20059;-79
2021/08/14 17:18:11;;;;;;;9.60;3.65;;;21.90;99.90;;;;;;2611067;46;20030;-77
2021/08/14 17:20:38;;;;;;;11.95;2.88;;;21.90;99.90;;;;;;2610142;54;20609;-77
2021/08/14 17:23:06;;;;;;;13.07;4.00;;;21.90;99.90;;;;;;2610676;47;20030;-78
2021/08/14 17:25:32;;;;;;;10.80;3.63;;;21.50;99.90;;;;;;2610235;54;20035;-78
2021/08/14 17:27:57;;;;;;;12.63;3.50;;;21.40;99.90;;;;;;2609993;54;20038;-78
2021/08/14 17:30:23;;;;;;;10.05;3.60;;;21.60;99.90;;;;;;2611189;46;20042;-78
2021/08/14 17:32:49;;;;;;;12.00;3.80;;;21.50;99.90;;;;;;2610537;54;20600;-79
2021/08/14 17:35:14;;;;;;;9.23;3.00;;;21.50;99.90;;;;;;2610422;54;20023;-77
2021/08/14 17:37:43;;;;;;;7.50;3.22;;;21.70;99.90;;;;;;2610262;54;20038;-78
2021/08/14 17:40:09;;;;;;;13.13;3.60;;;21.70;99.90;;;;;;2610188;47;20137;-78
2021/08/14 17:42:35;;;;;;;11.73;3.85;;;21.80;99.90;;;;;;2609526;46;20046;-80
2021/08/14 17:45:01;;;;;;;10.88;3.38;;;21.60;99.90;;;;;;2611320;47;20065;-79
2021/08/14 17:47:26;;;;;;;8.35;3.03;;;21.50;99.90;;;;;;2610508;47;20030;-79
2021/08/14 17:49:52;;;;;;;10.13;3.38;;;21.30;99.90;;;;;;2610860;47;20581;-78
2021/08/14 17:52:18;;;;;;;9.75;4.10;;;21.10;99.90;;;;;;2611318;46;20056;-78
2021/08/14 17:54:43;;;;;;;11.98;3.28;;;21.00;99.90;;;;;;2610255;39;20832;-78
2021/08/14 17:57:09;;;;;;;10.00;3.35;;;21.00;99.90;;;;;;2610298;47;20035;-78
2021/08/14 17:59:35;;;;;;;8.32;3.33;;;21.20;99.90;;;;;;2610905;47;20034;-78
2021/08/14 18:02:02;;;;;;;9.82;4.30;;;21.10;99.90;;;;;;2611189;47;20542;-78
2021/08/14 18:04:29;;;;;;;11.00;3.85;;;21.00;99.90;;;;;;2611165;47;20035;-78
2021/08/14 18:06:55;;;;;;;10.80;4.30;;;21.00;99.90;;;;;;2610802;47;20613;-78
2021/08/14 18:09:21;;;;;;;12.18;3.70;;;21.10;99.90;;;;;;2610664;47;20035;-77
2021/08/14 18:11:47;;;;;;;12.70;3.88;;;21.10;99.90;;;;;;2609823;47;20365;-78
2021/08/14 18:14:13;;;;;;;15.07;4.60;;;21.00;99.90;;;;;;2610796;39;20469;-77
2021/08/14 18:18:15;;;;;;;10.50;4.50;;;20.80;99.90;;;;;;2616401;54;20849;-87
2021/08/14 18:20:45;;;;;;;18.38;7.57;;;20.80;99.90;;;;;;2619811;46;20034;-85
2021/08/14 18:23:12;;;;;;;15.23;5.45;;;20.80;99.90;;;;;;2619460;46;20023;-86
2021/08/14 18:25:38;;;;;;;16.63;7.35;;;20.90;99.90;;;;;;2620609;38;20435;-86
2021/08/14 18:28:06;;;;;;;13.65;5.95;;;20.80;99.90;;;;;;2618116;46;20038;-82
2021/08/14 18:30:34;;;;;;;25.08;7.30;;;20.80;99.90;;;;;;2618943;46;20153;-83
2021/08/14 18:33:00;;;;;;;12.13;4.82;;;20.80;99.90;;;;;;2616446;46;20545;-84
2021/08/14 18:35:25;;;;;;;17.58;6.20;;;20.50;99.90;;;;;;2616918;46;20037;-84
2021/08/14 18:37:51;;;;;;;16.58;5.38;;;20.40;99.90;;;;;;2617040;46;20038;-84
2021/08/14 18:40:17;;;;;;;16.90;5.93;;;20.60;99.90;;;;;;2615914;54;20592;-84
2021/08/14 18:42:42;;;;;;;14.73;5.38;;;20.40;99.90;;;;;;2615732;46;20069;-82
2021/08/14 18:45:09;;;;;;;18.35;5.80;;;20.30;99.90;;;;;;2614816;47;20040;-82
2021/08/14 18:47:34;;;;;;;15.13;5.30;;;20.30;99.90;;;;;;2615235;54;20034;-84
2021/08/14 18:50:00;;;;;;;17.10;5.47;;;20.20;99.90;;;;;;2616164;46;20057;-84
2021/08/14 18:52:26;;;;;;;15.82;5.97;;;20.20;99.90;;;;;;2618115;46;20042;-85
2021/08/14 18:54:51;;;;;;;12.10;5.10;;;20.20;99.90;;;;;;2620323;46;20058;-85